createdAt,value
2018-12-13T00:00:58.511Z,10.00
2018-12-13T00:03:26.963Z,8.97
2018-12-13T00:05:55.477Z,9.47
2018-12-13T00:08:23.984Z,9.20
2018-12-13T00:10:52.434Z,9.20
2018-12-13T00:13:20.924Z,9.57
2018-12-13T00:15:49.442Z,9.73
2018-12-13T00:18:17.957Z,9.67
2018-12-13T00:20:46.448Z,10.10
2018-12-13T00:23:14.879Z,8.53
2018-12-13T00:25:43.301Z,7.73
2018-12-13T00:28:11.777Z,7.33
2018-12-13T00:30:40.276Z,7.40
2018-12-13T00:33:08.750Z,7.50
2018-12-13T00:35:37.272Z,8.70
2018-12-13T00:38:05.719Z,9.60
2018-12-13T00:40:34.182Z,8.87
2018-12-13T00:43:02.642Z,9.07
2018-12-13T00:45:31.098Z,8.00
2018-12-13T00:47:59.555Z,7.93
2018-12-13T00:50:28.047Z,7.90
2018-12-13T00:52:56.474Z,7.47
2018-12-13T00:55:25.586Z,8.03
2018-12-13T00:57:54.106Z,8.73
2018-12-13T01:00:22.595Z,8.40
2018-12-13T01:02:51.030Z,7.77
2018-12-13T01:05:19.543Z,7.87
2018-12-13T01:07:48.011Z,7.90
2018-12-13T01:10:16.699Z,8.20
2018-12-13T01:12:45.211Z,7.90
2018-12-13T01:15:13.798Z,7.93
2018-12-13T01:17:42.236Z,8.20
2018-12-13T01:20:10.698Z,8.17
2018-12-13T01:22:39.128Z,8.17
2018-12-13T01:25:07.658Z,7.60
2018-12-13T01:27:36.093Z,8.33
2018-12-13T01:30:04.806Z,9.40
2018-12-13T01:32:33.233Z,8.53
2018-12-13T01:35:01.722Z,9.70
2018-12-13T01:37:30.179Z,9.23
2018-12-13T01:39:58.870Z,9.07
2018-12-13T01:42:27.355Z,8.50
2018-12-13T01:44:55.783Z,9.03
2018-12-13T01:47:24.234Z,9.07
2018-12-13T01:49:52.680Z,8.87
2018-12-13T01:54:46.599Z,8.90
2018-12-13T01:57:15.070Z,9.20
2018-12-13T01:59:43.542Z,9.10
2018-12-13T02:02:12.067Z,8.57
2018-12-13T02:04:40.560Z,8.43
2018-12-13T02:07:09.019Z,8.60
2018-12-13T02:09:37.447Z,8.80
2018-12-13T02:12:05.909Z,8.83
2018-12-13T02:14:34.352Z,8.57
2018-12-13T02:17:02.803Z,8.93
2018-12-13T02:19:31.387Z,8.73
2018-12-13T02:21:59.819Z,7.90
2018-12-13T02:24:28.291Z,8.77
2018-12-13T02:26:56.743Z,8.50
2018-12-13T02:29:25.603Z,8.20
2018-12-13T02:31:54.008Z,7.80
2018-12-13T02:34:22.517Z,8.17
2018-12-13T02:36:50.948Z,8.60
2018-12-13T02:39:19.368Z,8.30
2018-12-13T02:41:47.862Z,7.63
2018-12-13T02:44:16.351Z,7.37
2018-12-13T02:46:44.797Z,7.97
2018-12-13T02:49:13.263Z,8.23
2018-12-13T02:51:41.743Z,7.33
2018-12-13T02:54:10.196Z,7.57
2018-12-13T02:56:38.946Z,7.80
2018-12-13T02:59:07.367Z,8.00
2018-12-13T03:01:35.811Z,7.93
2018-12-13T03:04:04.330Z,7.37
2018-12-13T03:06:32.758Z,7.63
2018-12-13T03:09:01.183Z,7.73
2018-12-13T03:11:29.657Z,7.80
2018-12-13T03:13:58.157Z,7.80
2018-12-13T03:16:26.703Z,8.03
2018-12-13T03:18:55.159Z,7.63
2018-12-13T03:21:23.685Z,7.80
2018-12-13T03:23:52.143Z,7.87
2018-12-13T03:26:20.623Z,8.13
2018-12-13T03:28:49.065Z,8.47
2018-12-13T03:31:17.548Z,7.87
2018-12-13T03:33:46.172Z,7.93
2018-12-13T03:36:14.617Z,8.80
2018-12-13T03:38:43.082Z,8.63
2018-12-13T03:41:11.630Z,8.37
2018-12-13T03:43:40.083Z,8.10
2018-12-13T03:46:08.538Z,8.60
2018-12-13T03:48:37.037Z,9.07
2018-12-13T03:51:05.574Z,8.87
2018-12-13T03:53:34.027Z,8.60
2018-12-13T03:56:02.519Z,8.50
2018-12-13T03:58:30.950Z,8.60
2018-12-13T04:00:59.390Z,8.93
2018-12-13T04:03:27.870Z,8.23
2018-12-13T04:05:56.321Z,8.33
2018-12-13T04:08:24.787Z,7.97
2018-12-13T04:10:53.239Z,8.50
2018-12-13T04:13:21.720Z,8.33
2018-12-13T04:15:50.182Z,8.67
2018-12-13T04:18:19.726Z,7.93
2018-12-13T04:20:48.631Z,8.17
2018-12-13T04:23:17.098Z,8.33
2018-12-13T04:25:45.638Z,8.37
2018-12-13T04:28:14.084Z,8.37
2018-12-13T04:30:42.528Z,8.70
2018-12-13T04:33:11.011Z,8.50
2018-12-13T04:35:39.455Z,8.87
2018-12-13T04:38:07.917Z,8.20
2018-12-13T04:40:36.406Z,8.33
2018-12-13T04:43:04.832Z,7.97
2018-12-13T04:45:33.303Z,7.73
2018-12-13T04:48:01.747Z,8.17
2018-12-13T04:50:30.187Z,8.43
2018-12-13T04:52:58.623Z,8.70
2018-12-13T04:55:27.118Z,9.07
2018-12-13T04:57:55.578Z,8.77
2018-12-13T05:00:23.976Z,8.03
2018-12-13T05:02:52.448Z,8.37
2018-12-13T05:05:20.886Z,8.57
2018-12-13T05:07:49.338Z,8.53
2018-12-13T05:13:19.492Z,8.67
2018-12-13T05:15:48.046Z,12.00
2018-12-13T05:18:16.528Z,10.93
2018-12-13T05:20:44.994Z,9.97
2018-12-13T05:23:13.483Z,9.67
2018-12-13T05:25:41.923Z,8.53
2018-12-13T05:28:10.371Z,8.83
2018-12-13T05:30:40.751Z,9.07
2018-12-13T05:33:09.195Z,9.00
2018-12-13T05:35:37.660Z,16.17
2018-12-13T05:38:06.153Z,10.03
2018-12-13T05:40:34.619Z,9.37
2018-12-13T05:43:03.052Z,9.67
2018-12-13T05:45:31.513Z,9.33
2018-12-13T05:47:59.952Z,9.33
2018-12-13T05:50:28.390Z,9.63
2018-12-13T05:52:56.876Z,9.83
2018-12-13T05:55:25.308Z,10.37
2018-12-13T05:57:53.768Z,10.40
2018-12-13T06:00:22.264Z,10.07
2018-12-13T06:02:50.728Z,10.17
2018-12-13T06:05:19.171Z,10.40
2018-12-13T06:07:47.668Z,10.83
2018-12-13T06:10:16.107Z,9.87
2018-12-13T06:12:44.959Z,10.53
2018-12-13T06:15:13.427Z,9.90
2018-12-13T06:17:41.851Z,9.67
2018-12-13T06:20:10.310Z,9.30
2018-12-13T06:22:38.797Z,10.17
2018-12-13T06:25:07.354Z,9.73
2018-12-13T06:27:35.803Z,10.67
2018-12-13T06:30:07.605Z,11.00
2018-12-13T06:32:36.635Z,10.60
2018-12-13T06:35:05.572Z,11.13
2018-12-13T06:37:34.058Z,11.07
2018-12-13T06:40:02.532Z,11.20
2018-12-13T06:42:30.988Z,11.10
2018-12-13T06:44:59.488Z,19.63
2018-12-13T06:47:27.964Z,14.93
2018-12-13T06:49:56.429Z,12.70
2018-12-13T06:52:24.914Z,12.57
2018-12-13T06:54:53.392Z,12.33
2018-12-13T06:57:21.842Z,11.97
2018-12-13T06:59:50.383Z,12.27
2018-12-13T07:02:18.869Z,11.57
2018-12-13T07:04:47.351Z,11.77
2018-12-13T07:07:15.834Z,11.17
2018-12-13T07:09:44.268Z,11.23
2018-12-13T07:12:12.769Z,25.17
2018-12-13T07:14:41.284Z,12.97
2018-12-13T07:17:09.768Z,12.50
2018-12-13T07:19:38.277Z,11.93
2018-12-13T07:22:06.792Z,11.60
2018-12-13T07:24:35.279Z,12.70
2018-12-13T07:27:03.772Z,13.03
2018-12-13T07:29:32.394Z,13.60
2018-12-13T07:32:00.848Z,13.60
2018-12-13T07:34:29.315Z,13.40
2018-12-13T07:36:58.040Z,12.50
2018-12-13T07:39:26.489Z,12.77
2018-12-13T07:41:54.947Z,12.83
2018-12-13T07:44:23.470Z,13.57
2018-12-13T07:46:51.963Z,14.83
2018-12-13T07:49:20.824Z,13.80
2018-12-13T07:51:49.591Z,13.00
2018-12-13T07:54:18.043Z,13.90
2018-12-13T07:56:46.534Z,13.00
2018-12-13T07:59:15.047Z,13.83
2018-12-13T08:01:43.839Z,13.80
2018-12-13T08:04:12.290Z,13.47
2018-12-13T08:06:40.793Z,13.73
2018-12-13T08:09:09.269Z,13.60
2018-12-13T08:11:37.736Z,14.17
2018-12-13T08:14:06.331Z,14.50
2018-12-13T08:16:34.833Z,14.17
2018-12-13T08:19:03.324Z,13.40
2018-12-13T08:21:31.883Z,14.60
2018-12-13T08:24:00.403Z,14.83
2018-12-13T08:26:28.867Z,14.00
2018-12-13T08:28:57.395Z,13.77
2018-12-13T08:31:25.871Z,14.80
2018-12-13T08:33:54.332Z,14.27
2018-12-13T08:36:22.839Z,13.33
2018-12-13T08:38:51.307Z,14.03
2018-12-13T08:41:19.781Z,14.73
2018-12-13T08:43:48.319Z,14.37
2018-12-13T08:46:16.788Z,13.93
2018-12-13T08:48:45.251Z,14.60
2018-12-13T08:51:13.806Z,14.00
2018-12-13T08:53:42.230Z,13.83
2018-12-13T08:56:10.698Z,14.40
2018-12-13T08:58:39.186Z,14.37
2018-12-13T09:01:07.638Z,14.67
2018-12-13T09:03:36.131Z,15.80
2018-12-13T09:06:04.623Z,14.87
2018-12-13T09:08:33.730Z,15.90
2018-12-13T09:11:02.395Z,15.57
2018-12-13T09:13:30.888Z,15.23
2018-12-13T09:15:59.483Z,15.60
2018-12-13T09:18:27.947Z,16.00
2018-12-13T09:20:56.451Z,15.13
2018-12-13T09:23:24.892Z,15.20
2018-12-13T09:25:53.331Z,15.97
2018-12-13T09:28:21.883Z,16.13
2018-12-13T09:30:50.610Z,16.33
2018-12-13T09:33:19.320Z,15.97
2018-12-13T09:35:47.819Z,15.40
2018-12-13T09:38:16.339Z,15.63
2018-12-13T09:40:44.843Z,16.10
2018-12-13T09:43:13.579Z,15.87
2018-12-13T09:45:42.087Z,16.80
2018-12-13T09:48:10.552Z,16.03
2018-12-13T09:50:39.018Z,15.17
2018-12-13T09:53:07.558Z,14.90
2018-12-13T09:55:36.023Z,15.03
2018-12-13T09:58:04.489Z,15.10
2018-12-13T10:00:32.979Z,14.67
2018-12-13T10:03:01.483Z,14.43
2018-12-13T10:05:29.925Z,14.17
2018-12-13T10:07:58.755Z,15.53
2018-12-13T10:10:27.290Z,14.40
2018-12-13T10:12:55.879Z,15.23
2018-12-13T10:15:24.337Z,16.03
2018-12-13T10:17:52.836Z,16.00
2018-12-13T10:20:21.331Z,16.70
2018-12-13T10:22:49.807Z,16.07
2018-12-13T10:25:18.245Z,15.47
2018-12-13T10:27:46.703Z,16.13
2018-12-13T10:30:15.305Z,17.20
2018-12-13T10:32:43.777Z,17.23
2018-12-13T10:35:12.339Z,18.07
2018-12-13T10:37:40.833Z,18.07
2018-12-13T10:40:09.353Z,18.27
2018-12-13T10:42:38.179Z,16.67
2018-12-13T10:45:06.749Z,17.50
2018-12-13T10:47:35.227Z,17.03
2018-12-13T10:50:05.102Z,18.13
2018-12-13T10:52:33.533Z,16.87
2018-12-13T10:55:02.009Z,17.63
2018-12-13T10:57:30.518Z,17.07
2018-12-13T10:59:58.971Z,15.73
2018-12-13T11:02:32.267Z,18.03
2018-12-13T11:05:01.038Z,16.20
2018-12-13T11:07:29.507Z,17.27
2018-12-13T11:09:58.058Z,17.37
2018-12-13T11:12:26.483Z,17.50
2018-12-13T11:14:54.982Z,16.70
2018-12-13T11:17:23.435Z,17.37
2018-12-13T11:19:52.179Z,17.60
2018-12-13T11:22:20.692Z,17.17
2018-12-13T11:24:49.201Z,17.90
2018-12-13T11:27:29.590Z,16.93
2018-12-13T11:33:00.291Z,18.07
2018-12-13T11:35:28.788Z,18.60
2018-12-13T11:37:57.290Z,18.70
2018-12-13T11:40:25.721Z,19.37
2018-12-13T11:42:54.315Z,20.57
2018-12-13T11:45:22.907Z,19.50
2018-12-13T11:47:51.396Z,17.87
2018-12-13T11:50:19.875Z,19.23
2018-12-13T11:52:48.343Z,18.20
2018-12-13T11:55:33.967Z,18.20
2018-12-13T11:58:02.768Z,20.17
2018-12-13T12:00:31.230Z,20.80
2018-12-13T12:02:59.687Z,18.67
2018-12-13T12:05:28.156Z,19.67
2018-12-13T12:07:56.669Z,20.30
2018-12-13T12:10:25.270Z,18.73
2018-12-13T12:12:53.707Z,18.07
2018-12-13T12:15:22.200Z,18.10
2018-12-13T12:17:50.642Z,18.90
2018-12-13T12:20:19.083Z,18.03
2018-12-13T12:22:47.591Z,18.27
2018-12-13T12:25:16.063Z,17.93
2018-12-13T12:27:44.506Z,20.43
2018-12-13T12:30:13.823Z,19.07
2018-12-13T12:32:42.291Z,18.73
2018-12-13T12:35:10.892Z,17.73
2018-12-13T12:37:39.765Z,16.47
2018-12-13T12:40:08.438Z,16.30
2018-12-13T12:42:36.911Z,16.50
2018-12-13T12:45:05.629Z,17.27
2018-12-13T12:47:34.099Z,16.63
2018-12-13T12:50:02.577Z,17.23
2018-12-13T12:52:31.052Z,16.27
2018-12-13T12:54:59.509Z,16.13
2018-12-13T12:57:27.999Z,16.63
2018-12-13T12:59:56.795Z,15.93
2018-12-13T13:02:25.261Z,17.23
2018-12-13T13:04:53.779Z,17.17
2018-12-13T13:07:22.261Z,15.67
2018-12-13T13:09:50.719Z,16.40
2018-12-13T13:12:19.220Z,16.13
2018-12-13T13:14:47.693Z,16.60
2018-12-13T13:17:16.499Z,16.80
2018-12-13T13:19:44.979Z,17.40
2018-12-13T13:22:13.432Z,17.53
2018-12-13T13:24:41.935Z,17.50
2018-12-13T13:27:10.393Z,16.83
2018-12-13T13:29:38.863Z,16.47
2018-12-13T13:32:07.692Z,16.93
2018-12-13T13:34:36.127Z,17.80
2018-12-13T13:37:04.606Z,17.17
2018-12-13T13:39:33.035Z,17.13
2018-12-13T13:42:01.520Z,17.37
2018-12-13T13:44:32.531Z,17.00
2018-12-13T13:47:01.043Z,16.47
2018-12-13T13:49:29.458Z,15.80
2018-12-13T13:51:59.778Z,15.33
2018-12-13T13:54:28.323Z,18.20
2018-12-13T13:56:56.803Z,16.60
2018-12-13T13:59:25.320Z,15.93
2018-12-13T14:01:53.841Z,17.57
2018-12-13T14:04:22.368Z,17.27
2018-12-13T14:06:50.855Z,16.00
2018-12-13T14:09:19.366Z,23.83
2018-12-13T14:11:48.113Z,17.80
2018-12-13T14:14:16.620Z,17.97
2018-12-13T14:16:45.059Z,16.37
2018-12-13T14:19:13.539Z,15.70
2018-12-13T14:21:42.028Z,15.73
2018-12-13T14:24:10.518Z,19.50
2018-12-13T14:26:38.989Z,18.03
2018-12-13T14:29:07.478Z,17.83
2018-12-13T14:31:35.989Z,16.97
2018-12-13T14:34:04.471Z,16.23
2018-12-13T14:36:32.920Z,16.67
2018-12-13T14:39:01.413Z,16.33
2018-12-13T14:41:29.875Z,15.47
2018-12-13T14:43:59.405Z,15.93
2018-12-13T14:46:27.871Z,15.97
2018-12-13T14:48:56.363Z,16.33
2018-12-13T14:51:24.845Z,17.83
2018-12-13T14:53:53.313Z,17.13
2018-12-13T14:56:21.787Z,28.40
2018-12-13T14:58:50.293Z,20.57
2018-12-13T15:01:18.703Z,16.10
2018-12-13T15:03:47.203Z,16.47
2018-12-13T15:06:15.725Z,16.17
2018-12-13T15:08:44.182Z,17.60
2018-12-13T15:11:12.729Z,18.70
2018-12-13T15:13:41.660Z,18.50
2018-12-13T15:16:10.203Z,17.27
2018-12-13T15:18:38.697Z,16.83
2018-12-13T15:21:07.152Z,18.57
2018-12-13T15:23:35.658Z,17.20
2018-12-13T15:26:04.121Z,16.70
2018-12-13T15:28:32.577Z,16.83
2018-12-13T15:31:01.096Z,16.43
2018-12-13T15:33:29.535Z,16.80
2018-12-13T15:35:58.003Z,16.03
2018-12-13T15:38:26.445Z,16.00
2018-12-13T15:40:54.904Z,15.57
2018-12-13T15:43:23.489Z,15.17
2018-12-13T15:45:51.950Z,14.90
2018-12-13T15:48:20.423Z,15.80
2018-12-13T15:50:48.921Z,14.33
2018-12-13T15:53:17.415Z,15.33
2018-12-13T15:55:45.884Z,17.40
2018-12-13T15:58:14.413Z,15.07
2018-12-13T16:00:42.894Z,15.47
2018-12-13T16:03:11.342Z,20.90
2018-12-13T16:05:39.860Z,20.03
2018-12-13T16:08:08.344Z,15.13
2018-12-13T16:10:36.794Z,14.63
2018-12-13T16:13:05.311Z,14.73
2018-12-13T16:15:33.776Z,20.93
2018-12-13T16:18:02.471Z,17.17
2018-12-13T16:20:32.001Z,14.33
2018-12-13T16:23:00.466Z,14.80
2018-12-13T16:25:28.944Z,16.33
2018-12-13T16:27:57.435Z,15.83
2018-12-13T16:30:26.130Z,15.63
2018-12-13T16:32:54.598Z,15.30
2018-12-13T16:35:23.120Z,14.97
2018-12-13T16:37:51.935Z,14.93
2018-12-13T16:40:20.474Z,16.03
2018-12-13T16:42:49.044Z,15.10
2018-12-13T16:45:17.585Z,14.80
2018-12-13T16:47:46.141Z,15.30
2018-12-13T16:50:14.747Z,17.40
2018-12-13T16:52:43.219Z,15.90
2018-12-13T16:55:11.744Z,14.87
2018-12-13T16:57:40.284Z,13.83
2018-12-13T17:00:09.773Z,13.80
2018-12-13T17:02:38.278Z,14.10
2018-12-13T17:05:06.885Z,13.63
2018-12-13T17:07:35.382Z,14.87
2018-12-13T17:10:04.519Z,27.97
2018-12-13T17:12:33.077Z,26.60
2018-12-13T17:15:01.706Z,17.63
2018-12-13T17:17:30.288Z,15.63
2018-12-13T17:19:59.268Z,15.63
2018-12-13T17:22:27.855Z,15.37
2018-12-13T17:24:56.435Z,17.13
2018-12-13T17:27:24.937Z,19.10
2018-12-13T17:29:53.462Z,20.73
2018-12-13T17:32:21.930Z,22.10
2018-12-13T17:34:50.513Z,22.93
2018-12-13T17:37:19.016Z,16.37
2018-12-13T17:39:47.505Z,15.77
2018-12-13T17:42:16.084Z,16.30
2018-12-13T17:44:44.590Z,16.30
2018-12-13T17:47:13.119Z,16.63
2018-12-13T17:49:41.953Z,15.10
2018-12-13T17:52:10.489Z,14.93
2018-12-13T17:54:39.052Z,15.37
2018-12-13T17:57:07.607Z,15.13
2018-12-13T17:59:36.155Z,16.03
2018-12-13T18:02:04.971Z,15.07
2018-12-13T18:04:33.524Z,15.07
2018-12-13T18:07:02.103Z,16.10
2018-12-13T18:09:30.628Z,15.43
2018-12-13T18:11:59.171Z,15.87
2018-12-13T18:14:27.768Z,15.17
2018-12-13T18:16:56.387Z,15.97
2018-12-13T18:19:25.363Z,16.43
2018-12-13T18:21:53.907Z,16.47
2018-12-13T18:24:22.460Z,30.43
2018-12-13T18:26:51.132Z,26.30
2018-12-13T18:29:19.706Z,16.87
2018-12-13T18:31:48.335Z,16.37
2018-12-13T18:34:16.947Z,17.37
2018-12-13T18:36:45.528Z,17.17
2018-12-13T18:39:14.272Z,17.60
2018-12-13T18:41:42.843Z,18.30
2018-12-13T18:44:11.344Z,18.07
2018-12-13T18:46:39.967Z,18.60
2018-12-13T18:49:08.572Z,17.33
2018-12-13T18:51:37.203Z,17.60
2018-12-13T18:54:05.727Z,16.63
2018-12-13T18:56:34.370Z,17.93
2018-12-13T18:59:03.350Z,17.03
2018-12-13T19:01:31.912Z,17.77
2018-12-13T19:04:00.471Z,17.53
2018-12-13T19:06:29.100Z,18.30
2018-12-13T19:08:57.720Z,19.63
2018-12-13T19:11:27.353Z,18.70
2018-12-13T19:13:55.938Z,17.97
2018-12-13T19:16:25.420Z,29.60
2018-12-13T19:18:54.519Z,36.07
2018-12-13T19:21:23.121Z,22.33
2018-12-13T19:23:53.160Z,20.00
2018-12-13T19:26:21.745Z,20.80
2018-12-13T19:28:50.361Z,19.13
2018-12-13T19:33:52.783Z,19.83
2018-12-13T19:36:21.896Z,19.23
2018-12-13T19:38:51.283Z,19.77
2018-12-13T19:41:20.315Z,21.13
2018-12-13T19:43:48.971Z,19.63
2018-12-13T19:46:19.266Z,21.27
2018-12-13T19:48:48.189Z,20.23
2018-12-13T19:51:17.141Z,19.70
2018-12-13T19:53:45.691Z,19.70
2018-12-13T19:56:15.803Z,18.13
2018-12-13T19:58:44.432Z,18.50
2018-12-13T20:01:13.050Z,18.90
2018-12-13T20:03:42.207Z,22.27
2018-12-13T20:06:11.052Z,30.67
2018-12-13T20:08:40.615Z,18.93
2018-12-13T20:11:09.231Z,19.00
2018-12-13T20:13:37.861Z,19.37
2018-12-13T20:16:06.456Z,19.53
2018-12-13T20:18:35.047Z,19.57
2018-12-13T20:21:05.005Z,18.57
2018-12-13T20:23:35.999Z,19.67
2018-12-13T20:26:05.057Z,19.53
2018-12-13T20:28:33.690Z,18.63
2018-12-13T20:31:02.891Z,18.60
2018-12-13T20:33:31.554Z,16.23
2018-12-13T20:36:00.155Z,17.57
2018-12-13T20:38:28.766Z,16.50
2018-12-13T20:41:00.972Z,15.83
2018-12-13T20:43:27.983Z,15.30
2018-12-13T20:45:56.631Z,14.60
2018-12-13T20:48:26.270Z,14.50
2018-12-13T20:50:54.889Z,13.47
2018-12-13T20:53:25.090Z,13.87
2018-12-13T20:55:53.827Z,16.63
2018-12-13T20:58:22.522Z,18.50
2018-12-13T21:00:51.958Z,19.20
2018-12-13T21:03:20.538Z,14.67
2018-12-13T21:05:49.163Z,14.90
2018-12-13T21:08:18.399Z,15.07
2018-12-13T21:10:47.001Z,15.00
2018-12-13T21:13:15.607Z,15.60
2018-12-13T21:15:44.272Z,15.73
2018-12-13T21:18:13.120Z,14.43
2018-12-13T21:20:41.755Z,14.97
2018-12-13T21:23:10.329Z,14.20
2018-12-13T21:25:38.969Z,14.77
2018-12-13T21:28:07.539Z,16.27
2018-12-13T21:30:36.452Z,14.73
2018-12-13T21:33:05.052Z,14.77
2018-12-13T21:35:33.664Z,14.87
2018-12-13T21:38:02.249Z,14.37
2018-12-13T21:40:30.827Z,19.03
2018-12-13T21:42:59.384Z,17.23
2018-12-13T21:45:27.977Z,15.60
2018-12-13T21:47:56.620Z,14.63
2018-12-13T21:50:25.118Z,13.67
2018-12-13T21:52:53.602Z,13.07
2018-12-13T21:55:22.129Z,15.13
2018-12-13T21:57:50.645Z,14.00
2018-12-13T22:00:19.115Z,15.13
2018-12-13T22:02:47.563Z,15.40
2018-12-13T22:05:16.033Z,15.37
2018-12-13T22:07:44.891Z,15.17
2018-12-13T22:10:13.344Z,14.80
2018-12-13T22:12:41.930Z,15.10
2018-12-13T22:15:11.307Z,16.03
2018-12-13T22:17:39.802Z,14.63
2018-12-13T22:20:08.269Z,15.23
2018-12-13T22:22:36.779Z,15.13
2018-12-13T22:25:07.090Z,15.70
2018-12-13T22:27:35.598Z,16.10
2018-12-13T22:30:04.979Z,16.10
2018-12-13T22:32:33.419Z,15.50
2018-12-13T22:35:01.906Z,15.63
2018-12-13T22:37:30.394Z,17.27
2018-12-13T22:39:58.922Z,15.50
2018-12-13T22:42:27.395Z,16.07
2018-12-13T22:44:55.836Z,15.90
2018-12-13T22:47:24.711Z,16.60
2018-12-13T22:49:53.215Z,15.00
2018-12-13T22:52:21.654Z,15.87
2018-12-13T22:54:50.170Z,16.87
2018-12-13T22:57:18.906Z,16.70
2018-12-13T22:59:48.108Z,16.73
2018-12-13T23:02:16.582Z,19.20
2018-12-13T23:04:45.153Z,19.53
2018-12-13T23:07:13.950Z,16.00
2018-12-13T23:09:44.162Z,15.97
2018-12-13T23:12:13.322Z,16.00
2018-12-13T23:14:44.763Z,17.93
2018-12-13T23:17:13.263Z,15.87
2018-12-13T23:19:41.703Z,17.30
2018-12-13T23:22:10.186Z,23.80
2018-12-13T23:24:38.677Z,15.90
2018-12-13T23:27:07.212Z,18.80
2018-12-13T23:29:35.707Z,15.40
2018-12-13T23:32:04.618Z,19.73
2018-12-13T23:34:33.017Z,17.10
2018-12-13T23:37:01.477Z,15.97
2018-12-13T23:39:35.345Z,15.37
2018-12-13T23:42:03.803Z,17.03
2018-12-13T23:44:32.229Z,16.73
2018-12-13T23:47:00.905Z,14.67
2018-12-13T23:49:29.402Z,15.37
2018-12-13T23:51:58.329Z,12.37
2018-12-13T23:54:26.825Z,12.90
2018-12-13T23:56:55.283Z,13.17
2018-12-13T23:59:23.741Z,14.00
